Time;durP1;ratioP1;P1;durP2;ratioP2;P2;SDS_P1;SDS_P2;PMS_P1;PMS_P2;Temp;Humidity;BMP_temperature;BMP_pressure;BME280_temperature;BME280_humidity;BME280_pressure;Samples;Min_cycle;Max_cycle;Signal;HPM_P1;HPM_P2
2023/10/07 00:00:38;;;;;;;9.93;4.18;;;16.70;99.90;;;;;;5034096;28;20038;-81
2023/10/07 00:03:07;;;;;;;10.45;4.20;;;16.70;99.90;;;;;;5035781;28;20025;-80
2023/10/07 00:05:35;;;;;;;9.00;4.00;;;16.70;99.90;;;;;;5033958;28;20029;-80
2023/10/07 00:08:12;;;;;;;9.75;3.78;;;16.70;99.90;;;;;;5033989;28;20026;-79
2023/10/07 00:10:40;;;;;;;8.55;3.80;;;16.70;99.90;;;;;;5035288;28;20041;-80
2023/10/07 00:13:09;;;;;;;9.90;4.85;;;16.70;99.90;;;;;;5035310;28;20021;-80
2023/10/07 00:15:39;;;;;;;12.38;4.78;;;16.80;99.90;;;;;;5034991;28;20466;-80
2023/10/07 00:18:12;;;;;;;11.57;4.13;;;16.80;99.90;;;;;;5035463;28;20127;-80
2023/10/07 00:20:50;;;;;;;14.32;4.50;;;16.80;99.90;;;;;;5034588;28;20047;-81
2023/10/07 00:23:20;;;;;;;13.60;4.22;;;16.80;99.90;;;;;;5035093;28;20487;-81
2023/10/07 00:25:51;;;;;;;13.40;4.10;;;16.70;99.90;;;;;;5034794;28;20044;-81
2023/10/07 00:28:32;;;;;;;10.45;3.97;;;16.70;99.90;;;;;;5033588;28;20041;-81
2023/10/07 00:31:03;;;;;;;11.45;3.85;;;16.70;99.90;;;;;;5033904;28;20378;-82
2023/10/07 00:33:30;;;;;;;14.38;5.03;;;16.70;99.90;;;;;;5034592;28;20037;-81
2023/10/07 00:36:02;;;;;;;9.38;3.97;;;16.70;99.90;;;;;;5033340;28;20046;-82
2023/10/07 00:38:37;;;;;;;8.15;3.95;;;16.70;99.90;;;;;;5033575;28;20033;-81
2023/10/07 00:41:04;;;;;;;10.38;4.05;;;16.70;99.90;;;;;;5034530;28;20475;-81
2023/10/07 00:43:33;;;;;;;14.30;4.63;;;16.70;99.90;;;;;;5033202;28;20029;-81
2023/10/07 00:46:19;;;;;;;9.90;3.95;;;16.70;99.90;;;;;;5033513;28;20120;-81
2023/10/07 00:48:53;;;;;;;8.57;4.28;;;16.80;99.90;;;;;;5034412;28;20053;-82
2023/10/07 00:51:45;;;;;;;9.63;4.05;;;16.80;99.90;;;;;;5033947;28;20084;-82
2023/10/07 00:57:01;;;;;;;12.88;4.80;;;16.80;99.90;;;;;;5034305;28;20524;-82
2023/10/07 00:59:27;;;;;;;12.07;5.03;;;16.80;99.90;;;;;;5034309;28;20029;-82
2023/10/07 01:01:57;;;;;;;15.55;5.70;;;16.80;99.90;;;;;;5034136;28;20071;-81
2023/10/07 01:04:23;;;;;;;13.18;4.72;;;16.80;99.90;;;;;;5034059;28;20021;-82
2023/10/07 01:06:48;;;;;;;13.57;4.85;;;16.70;99.90;;;;;;5034079;28;20079;-81
2023/10/07 01:09:22;;;;;;;10.50;4.60;;;16.70;99.90;;;;;;5034305;28;20116;-81
2023/10/07 01:11:57;;;;;;;12.60;4.90;;;16.70;99.90;;;;;;5033330;28;20362;-82
2023/10/07 01:14:27;;;;;;;11.90;4.35;;;16.70;99.90;;;;;;5033493;28;20036;-81
2023/10/07 01:16:53;;;;;;;10.77;4.53;;;16.60;99.90;;;;;;5033946;28;20370;-82
2023/10/07 01:19:28;;;;;;;13.80;5.57;;;16.70;99.90;;;;;;5032388;28;20039;-82
2023/10/07 01:21:57;;;;;;;13.98;5.15;;;16.70;99.90;;;;;;5033152;28;20025;-81
2023/10/07 01:24:43;;;;;;;16.17;4.80;;;16.70;99.90;;;;;;5032733;28;20053;-81
2023/10/07 01:27:27;;;;;;;12.50;5.28;;;16.70;99.90;;;;;;5032785;28;20493;-81
2023/10/07 01:29:59;;;;;;;14.02;5.75;;;16.70;99.90;;;;;;5033785;28;20052;-82
2023/10/07 01:32:31;;;;;;;14.15;5.60;;;16.80;99.90;;;;;;5033876;28;20036;-81
2023/10/07 01:35:00;;;;;;;12.35;5.10;;;16.80;99.90;;;;;;5032535;28;20141;-81
2023/10/07 01:37:32;;;;;;;10.70;4.68;;;16.80;99.90;;;;;;5033380;28;20029;-82
2023/10/07 01:39:57;;;;;;;13.85;5.35;;;16.80;99.90;;;;;;5032549;28;20056;-81
2023/10/07 01:42:36;;;;;;;12.10;5.00;;;16.80;99.90;;;;;;5033192;28;20120;-81
2023/10/07 01:45:11;;;;;;;15.20;5.75;;;16.80;99.90;;;;;;5017754;28;20069;-81
2023/10/07 01:47:39;;;;;;;16.65;6.78;;;16.90;99.90;;;;;;5033670;28;20025;-81
2023/10/07 01:50:11;;;;;;;11.63;5.40;;;16.80;99.90;;;;;;5034019;28;20064;-81
2023/10/07 01:52:38;;;;;;;15.00;5.93;;;16.90;99.90;;;;;;5020418;28;20033;-82
2023/10/07 01:55:09;;;;;;;15.90;6.70;;;16.80;99.90;;;;;;5037386;28;20025;-82
2023/10/07 01:57:35;;;;;;;14.68;6.07;;;16.90;99.90;;;;;;5036872;28;20096;-81
2023/10/07 02:00:07;;;;;;;12.90;5.75;;;16.80;99.90;;;;;;5038044;28;20037;-82
2023/10/07 02:02:42;;;;;;;19.58;7.25;;;16.80;99.90;;;;;;5037853;28;20033;-81
2023/10/07 02:05:11;;;;;;;14.60;7.95;;;16.80;99.90;;;;;;5036355;28;20033;-81
2023/10/07 02:07:37;;;;;;;20.05;7.38;;;16.80;99.90;;;;;;5037850;28;20043;-81
2023/10/07 02:10:03;;;;;;;12.57;6.45;;;16.80;99.90;;;;;;5019496;28;20048;-81
2023/10/07 02:12:32;;;;;;;18.15;7.95;;;16.80;99.90;;;;;;5037261;28;20040;-81
2023/10/07 02:15:07;;;;;;;18.60;7.32;;;16.80;99.90;;;;;;5037201;28;20022;-81
2023/10/07 02:17:33;;;;;;;14.27;7.07;;;16.90;99.90;;;;;;5036528;28;20037;-82
2023/10/07 02:20:20;;;;;;;16.67;7.88;;;16.90;99.90;;;;;;5037226;28;20048;-82
2023/10/07 02:22:44;;;;;;;14.90;7.80;;;16.80;99.90;;;;;;5037060;28;20037;-83
2023/10/07 02:25:10;;;;;;;16.13;7.07;;;16.80;99.90;;;;;;5035601;28;20078;-83
2023/10/07 02:27:41;;;;;;;17.27;7.93;;;16.80;99.90;;;;;;5037348;28;20029;-82
2023/10/07 02:30:16;;;;;;;17.02;8.30;;;16.80;99.90;;;;;;5036470;28;20041;-82
2023/10/07 02:32:42;;;;;;;13.52;7.00;;;16.80;99.90;;;;;;5037271;28;20029;-82
2023/10/07 02:35:09;;;;;;;21.33;8.60;;;16.80;99.90;;;;;;5036960;28;20080;-82
2023/10/07 02:37:38;;;;;;;16.98;7.55;;;16.80;99.90;;;;;;5037414;28;20414;-82
2023/10/07 02:40:35;;;;;;;15.65;7.95;;;16.80;99.90;;;;;;5035377;28;20033;-81
2023/10/07 02:43:07;;;;;;;17.25;7.78;;;16.80;99.90;;;;;;5035386;28;20033;-81
2023/10/07 02:45:39;;;;;;;20.83;8.10;;;16.80;99.90;;;;;;5037023;28;20128;-81
2023/10/07 02:48:10;;;;;;;17.88;8.80;;;16.90;99.90;;;;;;5037010;28;20275;-80
2023/10/07 02:50:40;;;;;;;19.75;9.00;;;16.90;99.90;;;;;;5035817;28;20437;-80
2023/10/07 02:53:12;;;;;;;19.27;9.32;;;16.90;99.90;;;;;;5036629;28;20359;-81
2023/10/07 02:55:49;;;;;;;18.80;9.05;;;16.90;99.90;;;;;;5035832;28;20080;-81
2023/10/07 02:58:50;;;;;;;24.52;10.85;;;16.80;99.90;;;;;;5036072;28;20033;-82
2023/10/07 03:01:11;;;;;;;16.25;7.90;;;16.80;99.90;;;;;;5033821;28;20045;-81
2023/10/07 03:03:38;;;;;;;22.02;9.15;;;16.90;99.90;;;;;;5036845;28;20112;-82
2023/10/07 03:06:07;;;;;;;19.17;9.73;;;16.80;99.90;;;;;;5036046;28;20041;-81
2023/10/07 03:11:23;;;;;;;24.60;11.20;;;16.80;99.90;;;;;;5036291;28;20061;-81
2023/10/07 03:13:58;;;;;;;14.63;9.05;;;16.70;99.90;;;;;;5051563;28;20029;-81
2023/10/07 03:24:10;;;;;;;24.33;11.27;;;16.80;99.90;;;;;;5036146;28;20565;-81
2023/10/07 03:26:38;;;;;;;26.48;11.05;;;16.90;99.90;;;;;;5035900;28;20037;-82
2023/10/07 03:29:05;;;;;;;19.33;9.05;;;16.80;99.90;;;;;;5051207;28;20033;-81
2023/10/07 03:34:12;;;;;;;20.13;10.48;;;16.70;99.90;;;;;;5035690;28;20122;-80
2023/10/07 03:39:22;;;;;;;24.42;10.82;;;16.80;99.90;;;;;;5034955;28;20381;-81
2023/10/07 03:41:52;;;;;;;23.13;10.25;;;16.80;99.90;;;;;;5035689;28;20021;-82
2023/10/07 03:44:23;;;;;;;24.48;11.38;;;16.80;99.90;;;;;;5034962;28;20036;-81
2023/10/07 03:46:54;;;;;;;28.25;11.90;;;16.80;99.90;;;;;;5035632;28;20060;-81
2023/10/07 03:49:21;;;;;;;19.50;10.02;;;16.80;99.90;;;;;;5050835;28;20128;-81
2023/10/07 03:52:03;;;;;;;23.00;9.52;;;16.80;99.90;;;;;;5035452;28;20379;-80
2023/10/07 03:54:30;;;;;;;22.23;11.00;;;16.80;99.90;;;;;;5034839;28;20429;-80
2023/10/07 03:57:02;;;;;;;27.02;11.77;;;16.80;99.90;;;;;;5034805;28;20029;-80
2023/10/07 03:59:37;;;;;;;24.10;11.50;;;16.90;99.90;;;;;;5035655;28;20033;-81
2023/10/07 04:02:51;;;;;;;23.17;11.40;;;16.80;99.90;;;;;;5035813;28;20037;-81
2023/10/07 04:05:00;;;;;;;26.30;12.43;;;16.80;99.90;;;;;;5034280;28;20038;-81
2023/10/07 04:07:28;;;;;;;27.08;11.43;;;16.90;99.90;;;;;;5035173;28;20033;-81
2023/10/07 04:09:54;;;;;;;26.10;11.10;;;16.80;99.90;;;;;;5035090;28;20470;-81
2023/10/07 04:12:22;;;;;;;26.83;11.85;;;16.80;99.90;;;;;;5033193;28;20052;-81
2023/10/07 04:14:48;;;;;;;27.75;13.73;;;16.80;99.90;;;;;;5035006;28;20040;-81
2023/10/07 04:17:14;;;;;;;30.23;12.18;;;16.90;99.90;;;;;;5033816;28;20033;-81
2023/10/07 04:19:42;;;;;;;27.88;13.60;;;16.90;99.90;;;;;;5017819;28;20089;-81
2023/10/07 04:22:11;;;;;;;23.58;13.18;;;16.90;99.90;;;;;;5033877;28;20033;-81
2023/10/07 04:24:44;;;;;;;20.45;12.52;;;16.90;99.90;;;;;;5035060;28;20196;-81
2023/10/07 04:27:18;;;;;;;28.60;13.00;;;16.90;99.90;;;;;;5035014;28;20029;-81
2023/10/07 04:29:44;;;;;;;22.15;11.80;;;16.90;99.90;;;;;;5034092;28;20044;-81
2023/10/07 04:32:13;;;;;;;26.38;13.43;;;16.90;99.90;;;;;;5034334;28;20029;-81
2023/10/07 04:35:00;;;;;;;25.38;11.98;;;16.90;99.90;;;;;;5034309;28;20053;-81
2023/10/07 04:37:38;;;;;;;32.58;13.70;;;16.90;99.90;;;;;;5033154;28;20061;-81
2023/10/07 04:42:59;;;;;;;30.92;13.70;;;16.90;99.90;;;;;;5032986;28;20084;-81
2023/10/07 04:45:36;;;;;;;22.20;11.15;;;16.80;99.90;;;;;;5033318;28;20470;-82
2023/10/07 04:48:23;;;;;;;22.85;11.65;;;16.80;99.90;;;;;;5034359;28;20033;-81
2023/10/07 04:51:03;;;;;;;25.67;11.98;;;16.90;99.90;;;;;;5034157;28;20049;-80
2023/10/07 04:53:39;;;;;;;26.83;12.48;;;16.90;99.90;;;;;;5049550;28;20030;-81
2023/10/07 04:56:06;;;;;;;23.33;12.13;;;16.90;99.90;;;;;;5034529;28;20034;-81
2023/10/07 04:58:32;;;;;;;27.58;12.13;;;16.90;99.90;;;;;;5034384;28;20025;-81
2023/10/07 05:01:22;;;;;;;23.92;11.00;;;16.90;99.90;;;;;;5034318;28;20041;-81
2023/10/07 05:03:58;;;;;;;23.42;10.95;;;16.90;99.90;;;;;;5033685;28;20025;-81
2023/10/07 05:06:24;;;;;;;21.95;11.60;;;16.90;99.90;;;;;;5034320;28;20026;-82
2023/10/07 05:08:50;;;;;;;20.00;10.63;;;17.00;99.90;;;;;;5034208;28;20021;-82
2023/10/07 05:11:17;;;;;;;25.42;12.40;;;16.90;99.90;;;;;;5049269;28;20377;-81
2023/10/07 05:13:45;;;;;;;26.45;11.63;;;17.00;99.90;;;;;;5033946;28;20029;-82
2023/10/07 05:16:11;;;;;;;27.48;12.35;;;16.90;99.90;;;;;;5049096;28;20057;-82
2023/10/07 05:18:38;;;;;;;24.48;12.32;;;17.00;99.90;;;;;;5032622;28;20037;-81
2023/10/07 05:21:04;;;;;;;28.73;11.73;;;16.90;99.90;;;;;;5032536;28;20509;-81
2023/10/07 05:23:31;;;;;;;29.90;12.23;;;16.90;99.90;;;;;;5049246;28;20033;-81
2023/10/07 05:26:03;;;;;;;23.08;10.57;;;16.90;99.90;;;;;;5033126;28;20037;-81
2023/10/07 05:28:30;;;;;;;25.33;11.77;;;16.90;99.90;;;;;;5034081;28;20381;-81
2023/10/07 05:30:57;;;;;;;29.25;11.48;;;16.90;99.90;;;;;;5033317;28;20036;-81
2023/10/07 05:33:27;;;;;;;22.83;11.20;;;16.90;99.90;;;;;;5033607;28;20033;-81
2023/10/07 05:36:11;;;;;;;24.30;13.45;;;16.90;99.90;;;;;;5033247;28;20053;-80
2023/10/07 05:38:40;;;;;;;21.75;11.15;;;16.90;99.90;;;;;;5048947;28;20036;-81
2023/10/07 05:41:06;;;;;;;23.70;11.73;;;16.90;99.90;;;;;;5033529;28;20028;-81
2023/10/07 05:43:33;;;;;;;22.17;12.65;;;16.90;99.90;;;;;;5049645;28;20029;-81
2023/10/07 05:45:59;;;;;;;18.77;11.10;;;17.00;99.90;;;;;;5033250;28;20034;-81
2023/10/07 05:48:25;;;;;;;27.20;13.48;;;17.00;99.90;;;;;;5016387;28;20084;-80
2023/10/07 05:50:54;;;;;;;22.08;10.82;;;17.00;99.90;;;;;;5033380;28;20045;-81
2023/10/07 05:53:20;;;;;;;21.55;13.55;;;17.00;99.90;;;;;;5048827;28;20060;-82
2023/10/07 05:55:47;;;;;;;23.88;14.07;;;17.00;99.90;;;;;;5032199;28;20036;-81
2023/10/07 05:58:14;;;;;;;25.25;13.18;;;17.00;99.90;;;;;;5033693;28;20026;-81
2023/10/07 06:00:40;;;;;;;27.80;13.88;;;17.00;99.90;;;;;;5033793;28;20043;-81
2023/10/07 06:03:08;;;;;;;27.80;13.73;;;17.00;99.90;;;;;;5033813;28;20061;-81
2023/10/07 06:05:37;;;;;;;25.83;13.50;;;17.00;99.90;;;;;;5033627;28;20360;-81
2023/10/07 06:08:04;;;;;;;27.70;15.32;;;16.90;99.90;;;;;;5033713;28;20053;-81
2023/10/07 06:10:33;;;;;;;27.30;14.45;;;16.90;99.90;;;;;;5032426;28;20037;-81
2023/10/07 06:13:08;;;;;;;26.27;14.82;;;16.90;99.90;;;;;;5034114;28;20040;-81
2023/10/07 06:15:37;;;;;;;27.08;14.18;;;17.00;99.90;;;;;;5033283;28;20474;-81
2023/10/07 06:18:05;;;;;;;25.35;13.50;;;17.00;99.90;;;;;;5033641;28;20025;-81
2023/10/07 06:20:37;;;;;;;23.95;14.63;;;17.00;99.90;;;;;;5031596;28;20033;-81
2023/10/07 06:23:16;;;;;;;29.27;14.55;;;17.00;99.90;;;;;;5033609;28;20165;-81
2023/10/07 06:25:50;;;;;;;22.65;14.50;;;17.00;99.90;;;;;;5049141;28;20033;-80
2023/10/07 06:29:06;;;;;;;32.75;14.60;;;17.00;99.90;;;;;;5033296;28;20225;-81
2023/10/07 06:31:11;;;;;;;23.02;12.68;;;17.00;99.90;;;;;;5032430;28;20053;-83
2023/10/07 06:33:41;;;;;;;33.53;15.32;;;17.10;99.90;;;;;;5031984;28;20087;-81
2023/10/07 06:36:10;;;;;;;29.40;15.40;;;17.10;99.90;;;;;;5049876;28;20374;-81
2023/10/07 06:38:37;;;;;;;25.70;13.85;;;17.00;99.90;;;;;;5037206;28;20091;-81
2023/10/07 06:41:09;;;;;;;25.88;14.25;;;17.00;99.90;;;;;;5037156;28;20032;-81
2023/10/07 06:43:37;;;;;;;23.92;14.20;;;17.10;99.90;;;;;;5035600;28;20053;-82
2023/10/07 06:46:03;;;;;;;25.88;14.07;;;17.10;99.90;;;;;;5036661;28;20068;-82
2023/10/07 06:48:30;;;;;;;24.88;13.80;;;17.00;99.90;;;;;;5052309;28;20057;-82
2023/10/07 06:50:56;;;;;;;28.05;14.30;;;17.10;99.90;;;;;;5035480;28;20040;-82
2023/10/07 06:53:23;;;;;;;26.10;12.88;;;17.10;99.90;;;;;;5036622;28;20025;-82
2023/10/07 06:55:53;;;;;;;24.35;12.75;;;17.10;99.90;;;;;;5035319;28;20041;-82
2023/10/07 06:58:22;;;;;;;26.85;14.68;;;17.20;99.90;;;;;;5036722;28;20021;-81
2023/10/07 07:00:56;;;;;;;28.05;14.82;;;17.20;99.90;;;;;;5036116;28;20045;-79
2023/10/07 07:03:25;;;;;;;24.75;13.48;;;17.20;99.90;;;;;;5037096;28;20481;-79
2023/10/07 07:05:54;;;;;;;30.98;13.95;;;17.20;99.90;;;;;;5036058;28;20034;-78
2023/10/07 07:08:22;;;;;;;30.55;14.38;;;17.20;99.90;;;;;;5035115;28;20049;-78
2023/10/07 07:10:50;;;;;;;28.13;12.60;;;17.20;99.90;;;;;;5034584;28;20475;-77
2023/10/07 07:13:22;;;;;;;25.02;13.18;;;17.20;99.90;;;;;;5036608;28;20452;-78
2023/10/07 07:16:06;;;;;;;30.63;15.70;;;17.30;99.90;;;;;;5036402;28;20061;-77
2023/10/07 07:18:32;;;;;;;30.75;15.95;;;17.30;99.90;;;;;;5035693;28;20399;-78
2023/10/07 07:21:00;;;;;;;32.78;15.18;;;17.30;99.90;;;;;;5035689;28;20037;-78
2023/10/07 07:23:35;;;;;;;23.48;13.65;;;17.30;99.90;;;;;;5036839;28;20227;-78
2023/10/07 07:28:33;;;;;;;26.85;13.65;;;17.30;99.90;;;;;;5034745;28;20033;-78
2023/10/07 07:31:00;;;;;;;29.92;13.68;;;17.30;99.90;;;;;;5035991;28;20042;-78
2023/10/07 07:33:34;;;;;;;25.98;12.55;;;17.30;99.90;;;;;;5035356;28;20045;-78
2023/10/07 07:36:06;;;;;;;23.92;12.50;;;17.30;99.90;;;;;;5035698;28;20057;-78
2023/10/07 07:38:43;;;;;;;26.77;11.77;;;17.40;99.90;;;;;;5035877;28;20129;-78
2023/10/07 07:41:09;;;;;;;21.98;10.75;;;17.40;99.90;;;;;;5035550;28;20087;-78
2023/10/07 07:43:37;;;;;;;20.85;11.10;;;17.40;99.90;;;;;;5035611;28;20033;-78
2023/10/07 07:46:26;;;;;;;24.67;10.45;;;17.40;99.90;;;;;;5035561;28;20026;-77
2023/10/07 07:49:05;;;;;;;24.10;9.77;;;17.40;99.90;;;;;;5050514;28;20061;-78
2023/10/07 07:51:37;;;;;;;22.58;10.50;;;17.40;99.90;;;;;;5035360;28;20029;-78
2023/10/07 07:54:06;;;;;;;19.40;9.63;;;17.50;99.90;;;;;;5034725;28;20421;-78
2023/10/07 07:56:34;;;;;;;21.83;10.38;;;17.50;99.90;;;;;;5035337;28;20076;-78
2023/10/07 07:59:00;;;;;;;22.60;10.18;;;17.50;99.90;;;;;;5035513;28;20029;-78
2023/10/07 08:01:28;;;;;;;20.17;10.38;;;17.50;99.90;;;;;;5035221;28;20060;-78
2023/10/07 08:04:09;;;;;;;27.15;10.88;;;17.50;99.90;;;;;;5034690;28;20060;-78
2023/10/07 08:06:36;;;;;;;22.23;11.07;;;17.50;99.90;;;;;;5051379;28;20029;-78
2023/10/07 08:09:03;;;;;;;18.80;10.57;;;17.50;99.90;;;;;;5035323;28;20033;-78
2023/10/07 08:11:35;;;;;;;22.95;11.35;;;17.50;99.90;;;;;;5035129;28;20064;-77
2023/10/07 08:14:09;;;;;;;33.35;12.73;;;17.40;99.90;;;;;;5050432;28;20057;-78
2023/10/07 08:16:46;;;;;;;23.80;11.68;;;17.40;99.90;;;;;;5034903;28;20033;-78
2023/10/07 08:19:13;;;;;;;23.02;11.50;;;17.40;99.90;;;;;;5034972;28;20378;-77
2023/10/07 08:21:40;;;;;;;24.00;12.23;;;17.50;99.90;;;;;;5035686;28;20036;-78
2023/10/07 08:24:06;;;;;;;18.80;11.63;;;17.60;99.90;;;;;;5034787;28;20025;-78
2023/10/07 08:26:34;;;;;;;22.52;12.43;;;17.70;99.90;;;;;;5035143;28;20056;-77
2023/10/07 08:29:00;;;;;;;18.02;9.60;;;17.70;99.90;;;;;;5034934;28;20417;-78
2023/10/07 08:31:43;;;;;;;23.20;12.32;;;17.90;99.90;;;;;;5035122;28;20026;-78
2023/10/07 08:36:36;;;;;;;23.33;11.98;;;18.00;99.90;;;;;;5034934;28;20056;-79
2023/10/07 08:39:08;;;;;;;19.10;10.95;;;18.00;99.90;;;;;;5034576;28;20386;-78
2023/10/07 08:41:35;;;;;;;21.83;11.85;;;18.00;99.90;;;;;;5035042;28;20508;-79
2023/10/07 08:44:14;;;;;;;21.85;11.15;;;18.00;99.90;;;;;;5034188;28;20029;-80
2023/10/07 08:46:49;;;;;;;18.50;10.43;;;18.10;99.90;;;;;;5033489;28;20036;-78
2023/10/07 08:49:17;;;;;;;23.30;10.93;;;18.20;99.90;;;;;;5034246;28;20188;-78
2023/10/07 08:51:43;;;;;;;27.52;11.05;;;18.20;99.90;;;;;;5032876;28;20541;-78
2023/10/07 08:54:17;;;;;;;21.95;10.40;;;18.20;99.90;;;;;;5034059;28;20025;-78
2023/10/07 08:56:54;;;;;;;20.10;10.25;;;18.30;99.90;;;;;;5034328;28;20028;-78
2023/10/07 08:59:33;;;;;;;19.83;10.55;;;18.30;99.90;;;;;;5033368;28;20378;-78
2023/10/07 09:02:12;;;;;;;18.98;9.88;;;18.30;99.90;;;;;;5034980;28;20066;-82
2023/10/07 09:04:40;;;;;;;19.55;8.82;;;18.40;99.90;;;;;;5034388;28;20078;-84
2023/10/07 09:07:11;;;;;;;17.00;9.05;;;18.40;99.90;;;;;;5034047;28;20462;-81
2023/10/07 09:09:43;;;;;;;16.83;9.07;;;18.50;99.90;;;;;;5034821;28;20041;-85
2023/10/07 09:12:18;;;;;;;18.35;9.65;;;18.50;99.90;;;;;;5033135;28;20409;-85
2023/10/07 09:14:55;;;;;;;16.80;8.90;;;18.60;99.90;;;;;;5034631;28;20533;-84
2023/10/07 09:17:26;;;;;;;16.65;8.80;;;18.70;99.90;;;;;;5034106;28;20028;-84
2023/10/07 09:19:53;;;;;;;18.30;9.40;;;18.80;99.90;;;;;;5033996;28;20470;-84
2023/10/07 09:22:27;;;;;;;19.10;8.75;;;18.90;99.90;;;;;;5034050;28;20029;-84
2023/10/07 09:25:08;;;;;;;16.55;8.02;;;19.00;99.90;;;;;;5033903;28;20026;-84
2023/10/07 09:27:37;;;;;;;15.82;8.32;;;18.90;99.90;;;;;;5034585;28;20140;-84
2023/10/07 09:30:35;;;;;;;18.83;8.15;;;19.00;99.90;;;;;;5034069;28;20063;-84
2023/10/07 09:33:06;;;;;;;15.77;8.30;;;19.10;99.90;;;;;;5033778;28;20075;-82
2023/10/07 09:35:33;;;;;;;16.90;8.27;;;19.20;99.90;;;;;;5033588;28;20041;-82
2023/10/07 09:38:00;;;;;;;15.52;7.07;;;19.20;99.90;;;;;;5034339;28;20036;-82
2023/10/07 09:43:18;;;;;;;15.15;6.90;;;19.10;99.90;;;;;;5034108;28;20040;-82
2023/10/07 09:45:46;;;;;;;15.88;7.00;;;19.00;99.90;;;;;;5033694;28;20033;-83
2023/10/07 09:48:15;;;;;;;18.35;8.25;;;19.10;99.90;;;;;;5033583;28;20116;-83
2023/10/07 09:50:50;;;;;;;15.88;6.97;;;19.10;99.90;;;;;;5033359;28;20038;-83
2023/10/07 09:53:36;;;;;;;16.48;6.68;;;19.20;99.90;;;;;;5034403;28;20087;-81
2023/10/07 09:56:21;;;;;;;16.88;6.85;;;19.30;99.90;;;;;;5032910;28;20032;-82
2023/10/07 09:59:13;;;;;;;11.68;5.93;;;19.40;99.90;;;;;;5032274;28;20078;-81
2023/10/07 10:01:53;;;;;;;15.20;6.65;;;19.50;99.90;;;;;;5033375;28;20093;-84
2023/10/07 10:04:48;;;;;;;13.65;6.00;;;19.70;99.90;;;;;;5033723;28;20028;-81
2023/10/07 10:07:50;;;;;;;14.77;7.03;;;19.80;99.90;;;;;;5033226;28;20045;-80
2023/10/07 10:10:16;;;;;;;17.90;6.63;;;19.90;99.10;;;;;;5033446;28;20034;-82
2023/10/07 10:18:02;;;;;;;13.40;6.85;;;20.10;98.60;;;;;;5037211;28;19909;-83
2023/10/07 10:20:42;;;;;;;17.20;5.78;;;20.10;98.30;;;;;;5035930;28;20120;-79
2023/10/07 10:23:20;;;;;;;16.27;6.50;;;20.20;98.40;;;;;;5038148;28;20033;-80
2023/10/07 10:25:50;;;;;;;13.18;6.00;;;20.30;98.30;;;;;;5037585;28;20040;-79
2023/10/07 10:28:29;;;;;;;19.08;6.28;;;20.30;98.00;;;;;;5035516;28;20072;-74
2023/10/07 10:30:55;;;;;;;13.27;5.47;;;20.40;98.10;;;;;;5036643;28;20033;-79
2023/10/07 10:33:23;;;;;;;14.70;5.78;;;20.40;97.70;;;;;;5040798;28;20033;-86
2023/10/07 10:35:57;;;;;;;11.60;4.95;;;20.50;97.60;;;;;;5044454;28;20494;-85
2023/10/07 10:38:37;;;;;;;17.15;5.82;;;20.60;97.70;;;;;;5043206;28;20061;-83
2023/10/07 10:41:04;;;;;;;17.15;5.40;;;20.70;97.60;;;;;;5037728;28;20462;-83
2023/10/07 10:43:31;;;;;;;15.30;6.30;;;20.70;96.90;;;;;;5039178;28;20117;-87
2023/10/07 10:46:07;;;;;;;11.68;5.50;;;20.80;96.10;;;;;;5037251;28;20042;-78
2023/10/07 10:48:41;;;;;;;12.57;5.38;;;20.70;96.20;;;;;;5036630;28;20034;-79
2023/10/07 10:51:07;;;;;;;12.07;5.35;;;20.70;96.30;;;;;;5036056;28;20517;-79
2023/10/07 10:53:41;;;;;;;15.85;5.43;;;20.80;96.40;;;;;;5036526;28;20026;-79
2023/10/07 10:56:12;;;;;;;16.27;4.88;;;20.80;96.20;;;;;;5036641;28;20041;-79
2023/10/07 10:58:39;;;;;;;17.35;5.90;;;20.80;96.10;;;;;;5035136;28;20033;-79
2023/10/07 11:01:05;;;;;;;15.98;5.45;;;20.90;96.00;;;;;;5036713;28;20072;-79
2023/10/07 11:03:31;;;;;;;16.15;5.65;;;20.90;95.80;;;;;;5035101;28;20078;-80
2023/10/07 11:05:57;;;;;;;12.90;4.90;;;20.90;96.00;;;;;;5036120;28;20037;-80
2023/10/07 11:08:25;;;;;;;17.55;5.40;;;20.90;96.10;;;;;;5036654;28;20108;-80
2023/10/07 11:10:55;;;;;;;20.75;5.07;;;20.90;95.90;;;;;;5036273;28;20057;-79
2023/10/07 11:13:22;;;;;;;11.20;5.13;;;20.90;96.00;;;;;;5036108;28;20034;-79
2023/10/07 11:15:58;;;;;;;13.95;5.22;;;20.80;96.00;;;;;;5035400;28;20469;-77
2023/10/07 11:18:31;;;;;;;15.48;5.55;;;20.80;96.30;;;;;;5036041;28;20091;-80
2023/10/07 11:20:57;;;;;;;13.75;4.38;;;20.70;96.40;;;;;;5035465;28;20037;-79
2023/10/07 11:23:26;;;;;;;11.35;4.50;;;20.70;96.50;;;;;;5034499;28;20029;-79
2023/10/07 11:25:52;;;;;;;13.73;4.78;;;20.80;96.70;;;;;;5035852;28;20067;-79
2023/10/07 11:28:22;;;;;;;16.77;5.22;;;20.80;96.50;;;;;;5018791;28;20052;-79
2023/10/07 11:30:49;;;;;;;17.48;5.32;;;20.80;96.60;;;;;;5035805;28;20072;-80
2023/10/07 11:33:16;;;;;;;18.92;5.18;;;20.90;96.50;;;;;;5036527;28;20374;-79
2023/10/07 11:35:43;;;;;;;12.85;4.40;;;20.90;96.50;;;;;;5036225;28;20053;-80
2023/10/07 11:38:12;;;;;;;13.45;4.55;;;21.00;96.50;;;;;;5034322;28;20044;-80
2023/10/07 11:40:39;;;;;;;11.55;4.28;;;21.10;96.30;;;;;;5034083;28;20486;-80
2023/10/07 11:43:08;;;;;;;15.50;4.78;;;21.10;95.90;;;;;;5035634;28;20029;-80
2023/10/07 11:45:35;;;;;;;15.70;4.88;;;21.10;95.90;;;;;;5034260;28;20075;-80
2023/10/07 11:48:04;;;;;;;16.30;4.72;;;21.00;96.10;;;;;;5034277;28;20080;-80
2023/10/07 11:50:35;;;;;;;10.48;3.95;;;21.00;96.10;;;;;;5034251;28;20039;-79
2023/10/07 11:53:05;;;;;;;12.98;3.80;;;21.10;96.00;;;;;;5035426;28;20486;-79
2023/10/07 11:55:34;;;;;;;13.15;4.47;;;21.20;96.10;;;;;;5035696;28;20076;-79
2023/10/07 11:58:00;;;;;;;16.45;4.28;;;21.20;96.20;;;;;;5035376;28;20530;-80
2023/10/07 12:00:34;;;;;;;16.60;4.80;;;21.30;95.90;;;;;;5035291;28;20033;-79
2023/10/07 12:03:06;;;;;;;13.32;4.20;;;21.30;95.40;;;;;;5034797;28;20057;-80
2023/10/07 12:05:32;;;;;;;;;;;21.20;95.40;;;;;;5035775;28;20505;-80
2023/10/07 12:08:02;;;;;;;14.85;4.35;;;21.20;95.50;;;;;;5035114;28;19936;-80
2023/10/07 12:10:28;;;;;;;12.77;4.03;;;21.10;95.70;;;;;;5035017;28;20026;-80
2023/10/07 12:12:54;;;;;;;14.02;3.80;;;21.10;95.80;;;;;;5035244;28;20029;-81
2023/10/07 12:15:21;;;;;;;14.52;3.88;;;21.10;95.70;;;;;;5033926;28;20056;-79
2023/10/07 12:17:50;;;;;;;13.20;4.28;;;21.20;95.80;;;;;;5034114;28;20029;-80
2023/10/07 12:20:16;;;;;;;18.58;3.88;;;21.20;95.50;;;;;;5035197;28;20481;-80
2023/10/07 12:22:42;;;;;;;15.07;3.88;;;21.30;95.50;;;;;;5035031;28;20033;-79
2023/10/07 12:25:16;;;;;;;15.80;4.25;;;21.40;95.40;;;;;;5034462;28;20029;-80
2023/10/07 12:27:53;;;;;;;13.95;3.55;;;21.40;95.20;;;;;;5035328;28;20048;-81
2023/10/07 12:30:21;;;;;;;14.80;4.68;;;21.40;95.10;;;;;;5034764;28;20033;-80
2023/10/07 12:32:48;;;;;;;14.88;4.30;;;21.40;95.20;;;;;;5033904;28;20042;-80
2023/10/07 12:35:15;;;;;;;12.68;4.00;;;21.30;95.40;;;;;;5032894;28;20056;-81
2023/10/07 12:37:46;;;;;;;16.35;3.90;;;21.20;95.50;;;;;;5034548;28;20034;-80
2023/10/07 12:40:17;;;;;;;13.70;3.63;;;21.20;95.70;;;;;;5034902;28;20051;-81
2023/10/07 12:42:44;;;;;;;14.52;3.63;;;21.20;95.90;;;;;;5035006;28;20036;-81
2023/10/07 12:45:11;;;;;;;14.55;3.78;;;21.10;95.90;;;;;;5034174;28;20065;-81
2023/10/07 12:47:39;;;;;;;12.73;4.07;;;21.20;96.00;;;;;;5034279;28;20040;-81
2023/10/07 12:50:23;;;;;;;16.10;3.72;;;21.20;96.20;;;;;;5034485;28;20088;-80
2023/10/07 12:52:54;;;;;;;14.90;4.15;;;21.30;96.20;;;;;;5034510;28;20107;-80
2023/10/07 12:55:21;;;;;;;16.13;3.92;;;21.40;95.70;;;;;;5033073;28;20036;-81
2023/10/07 12:57:49;;;;;;;13.85;3.95;;;21.50;95.30;;;;;;5034374;28;20045;-81
2023/10/07 13:00:33;;;;;;;13.75;3.55;;;21.60;95.40;;;;;;5033164;28;20029;-81
2023/10/07 13:03:04;;;;;;;11.02;3.58;;;21.60;95.60;;;;;;5034428;28;20374;-81
2023/10/07 13:05:33;;;;;;;12.97;4.30;;;21.70;95.30;;;;;;5033455;28;20374;-80
2023/10/07 13:07:59;;;;;;;11.48;3.97;;;21.60;95.10;;;;;;5033964;28;20040;-80
2023/10/07 13:10:26;;;;;;;14.77;3.80;;;21.60;95.40;;;;;;5034193;28;20033;-81
2023/10/07 13:12:57;;;;;;;13.43;3.50;;;21.60;95.40;;;;;;5032722;28;20040;-80
2023/10/07 13:15:30;;;;;;;14.32;4.50;;;21.50;94.80;;;;;;5032907;28;20542;-80
2023/10/07 13:17:58;;;;;;;10.63;3.13;;;21.40;94.50;;;;;;5034184;28;20108;-81
2023/10/07 13:20:26;;;;;;;16.73;4.63;;;21.40;94.70;;;;;;5033948;28;20525;-81
2023/10/07 13:22:53;;;;;;;14.10;3.90;;;21.30;94.80;;;;;;5033867;28;20074;-81
2023/10/07 13:25:20;;;;;;;13.00;4.15;;;21.30;95.10;;;;;;5033866;28;20022;-80
2023/10/07 13:27:46;;;;;;;12.18;3.83;;;21.20;95.20;;;;;;5034083;28;20036;-80